sensor_id;sensor_type;location;lat;lon;timestamp;temperature;humidity
10459;DHT22;5277;48.722;8.736;2024-03-08T00:02:23;2.90;99.90
10459;DHT22;5277;48.722;8.736;2024-03-08T00:04:49;2.80;99.90
10459;DHT22;5277;48.722;8.736;2024-03-08T00:07:14;2.80;99.90
10459;DHT22;5277;48.722;8.736;2024-03-08T00:09:40;2.80;99.90
10459;DHT22;5277;48.722;8.736;2024-03-08T00:12:06;2.80;99.90
10459;DHT22;5277;48.722;8.736;2024-03-08T00:14:32;2.70;99.90
10459;DHT22;5277;48.722;8.736;2024-03-08T00:16:58;2.70;99.90
10459;DHT22;5277;48.722;8.736;2024-03-08T00:19:24;2.70;99.90
10459;DHT22;5277;48.722;8.736;2024-03-08T00:21:49;2.60;99.90
10459;DHT22;5277;48.722;8.736;2024-03-08T00:24:15;2.60;99.90
10459;DHT22;5277;48.722;8.736;2024-03-08T00:26:41;2.50;99.90
10459;DHT22;5277;48.722;8.736;2024-03-08T00:29:07;2.50;99.90
10459;DHT22;5277;48.722;8.736;2024-03-08T00:31:33;2.50;99.90
10459;DHT22;5277;48.722;8.736;2024-03-08T00:33:58;2.60;99.90
10459;DHT22;5277;48.722;8.736;2024-03-08T00:36:25;2.50;99.90
10459;DHT22;5277;48.722;8.736;2024-03-08T00:38:50;2.50;99.90
10459;DHT22;5277;48.722;8.736;2024-03-08T00:41:16;2.50;99.90
10459;DHT22;5277;48.722;8.736;2024-03-08T00:43:41;2.40;99.90
10459;DHT22;5277;48.722;8.736;2024-03-08T00:46:07;2.40;99.90
10459;DHT22;5277;48.722;8.736;2024-03-08T00:48:33;2.40;99.90
10459;DHT22;5277;48.722;8.736;2024-03-08T00:50:58;2.40;99.90
10459;DHT22;5277;48.722;8.736;2024-03-08T00:53:24;2.50;99.90
10459;DHT22;5277;48.722;8.736;2024-03-08T00:55:49;2.50;99.90
10459;DHT22;5277;48.722;8.736;2024-03-08T00:58:15;2.40;99.90
10459;DHT22;5277;48.722;8.736;2024-03-08T01:00:41;2.40;99.90
10459;DHT22;5277;48.722;8.736;2024-03-08T01:03:06;2.30;99.90
10459;DHT22;5277;48.722;8.736;2024-03-08T01:05:32;2.40;99.90
10459;DHT22;5277;48.722;8.736;2024-03-08T01:07:58;2.30;99.90
10459;DHT22;5277;48.722;8.736;2024-03-08T01:10:23;2.30;99.90
10459;DHT22;5277;48.722;8.736;2024-03-08T01:12:49;2.30;99.90
10459;DHT22;5277;48.722;8.736;2024-03-08T01:15:19;2.30;99.90
10459;DHT22;5277;48.722;8.736;2024-03-08T01:17:45;2.20;99.90
10459;DHT22;5277;48.722;8.736;2024-03-08T01:20:11;2.20;99.90
10459;DHT22;5277;48.722;8.736;2024-03-08T01:22:38;2.20;99.90
10459;DHT22;5277;48.722;8.736;2024-03-08T01:25:04;2.20;99.90
10459;DHT22;5277;48.722;8.736;2024-03-08T01:27:30;2.20;99.90
10459;DHT22;5277;48.722;8.736;2024-03-08T01:29:56;2.20;99.90
10459;DHT22;5277;48.722;8.736;2024-03-08T01:32:22;2.20;99.90
10459;DHT22;5277;48.722;8.736;2024-03-08T01:34:49;2.20;99.90
10459;DHT22;5277;48.722;8.736;2024-03-08T01:37:14;2.20;99.90
10459;DHT22;5277;48.722;8.736;2024-03-08T01:39:40;2.10;99.90
10459;DHT22;5277;48.722;8.736;2024-03-08T01:42:05;2.10;99.90
10459;DHT22;5277;48.722;8.736;2024-03-08T01:44:31;2.10;99.90
10459;DHT22;5277;48.722;8.736;2024-03-08T01:46:57;2.10;99.90
10459;DHT22;5277;48.722;8.736;2024-03-08T01:49:24;2.10;99.90
10459;DHT22;5277;48.722;8.736;2024-03-08T01:51:52;2.10;99.90
10459;DHT22;5277;48.722;8.736;2024-03-08T01:54:19;2.00;99.90
10459;DHT22;5277;48.722;8.736;2024-03-08T01:56:45;2.00;99.90
10459;DHT22;5277;48.722;8.736;2024-03-08T01:59:12;2.00;99.90
10459;DHT22;5277;48.722;8.736;2024-03-08T02:01:39;2.00;99.90
10459;DHT22;5277;48.722;8.736;2024-03-08T02:04:05;2.00;99.90
10459;DHT22;5277;48.722;8.736;2024-03-08T02:06:32;2.00;99.90
10459;DHT22;5277;48.722;8.736;2024-03-08T02:08:58;1.90;99.90
10459;DHT22;5277;48.722;8.736;2024-03-08T02:11:24;1.90;99.90
10459;DHT22;5277;48.722;8.736;2024-03-08T02:13:50;1.90;99.90
10459;DHT22;5277;48.722;8.736;2024-03-08T02:16:22;1.90;99.90
10459;DHT22;5277;48.722;8.736;2024-03-08T02:18:48;1.90;99.90
10459;DHT22;5277;48.722;8.736;2024-03-08T02:21:15;1.90;99.90
10459;DHT22;5277;48.722;8.736;2024-03-08T02:23:43;1.90;99.90
10459;DHT22;5277;48.722;8.736;2024-03-08T02:26:09;2.00;99.90
10459;DHT22;5277;48.722;8.736;2024-03-08T02:28:35;2.00;99.90
10459;DHT22;5277;48.722;8.736;2024-03-08T02:31:00;2.00;99.90
10459;DHT22;5277;48.722;8.736;2024-03-08T02:33:28;2.00;99.90
10459;DHT22;5277;48.722;8.736;2024-03-08T02:35:54;2.00;99.90
10459;DHT22;5277;48.722;8.736;2024-03-08T02:38:21;2.00;99.90
10459;DHT22;5277;48.722;8.736;2024-03-08T02:40:50;2.00;99.90
10459;DHT22;5277;48.722;8.736;2024-03-08T02:43:17;2.00;99.90
10459;DHT22;5277;48.722;8.736;2024-03-08T02:45:45;2.00;99.90
10459;DHT22;5277;48.722;8.736;2024-03-08T02:48:12;2.00;99.90
10459;DHT22;5277;48.722;8.736;2024-03-08T02:50:38;2.10;99.90
10459;DHT22;5277;48.722;8.736;2024-03-08T02:53:06;2.10;99.90
10459;DHT22;5277;48.722;8.736;2024-03-08T02:55:32;2.10;99.90
10459;DHT22;5277;48.722;8.736;2024-03-08T02:57:59;2.10;99.90
10459;DHT22;5277;48.722;8.736;2024-03-08T03:00:24;2.20;99.90
10459;DHT22;5277;48.722;8.736;2024-03-08T03:02:50;2.20;99.90
10459;DHT22;5277;48.722;8.736;2024-03-08T03:05:23;2.30;99.90
10459;DHT22;5277;48.722;8.736;2024-03-08T03:07:49;2.30;99.90
10459;DHT22;5277;48.722;8.736;2024-03-08T03:10:16;2.30;99.90
10459;DHT22;5277;48.722;8.736;2024-03-08T03:12:43;2.30;99.90
10459;DHT22;5277;48.722;8.736;2024-03-08T03:15:09;2.40;99.90
10459;DHT22;5277;48.722;8.736;2024-03-08T03:17:35;2.40;99.90
10459;DHT22;5277;48.722;8.736;2024-03-08T03:20:01;2.40;99.90
10459;DHT22;5277;48.722;8.736;2024-03-08T03:22:34;2.40;99.90
10459;DHT22;5277;48.722;8.736;2024-03-08T03:25:00;2.40;99.90
10459;DHT22;5277;48.722;8.736;2024-03-08T03:27:26;2.40;99.90
10459;DHT22;5277;48.722;8.736;2024-03-08T03:29:51;2.40;99.90
10459;DHT22;5277;48.722;8.736;2024-03-08T03:32:17;2.40;99.90
10459;DHT22;5277;48.722;8.736;2024-03-08T03:34:44;2.40;99.90
10459;DHT22;5277;48.722;8.736;2024-03-08T03:37:10;2.50;99.90
10459;DHT22;5277;48.722;8.736;2024-03-08T03:39:39;2.40;99.90
10459;DHT22;5277;48.722;8.736;2024-03-08T03:42:17;2.50;99.90
10459;DHT22;5277;48.722;8.736;2024-03-08T03:44:49;2.40;99.90
10459;DHT22;5277;48.722;8.736;2024-03-08T03:47:15;2.40;99.90
10459;DHT22;5277;48.722;8.736;2024-03-08T03:49:41;2.40;99.90
10459;DHT22;5277;48.722;8.736;2024-03-08T03:52:08;2.30;99.90
10459;DHT22;5277;48.722;8.736;2024-03-08T03:54:33;2.30;99.90
10459;DHT22;5277;48.722;8.736;2024-03-08T03:56:59;2.20;99.90
10459;DHT22;5277;48.722;8.736;2024-03-08T03:59:26;2.20;99.90
10459;DHT22;5277;48.722;8.736;2024-03-08T04:01:53;2.30;99.90
10459;DHT22;5277;48.722;8.736;2024-03-08T04:04:18;2.30;99.90
10459;DHT22;5277;48.722;8.736;2024-03-08T04:06:44;2.30;99.90
10459;DHT22;5277;48.722;8.736;2024-03-08T04:09:10;2.30;99.90
10459;DHT22;5277;48.722;8.736;2024-03-08T04:11:36;2.30;99.90
10459;DHT22;5277;48.722;8.736;2024-03-08T04:14:02;2.30;99.90
10459;DHT22;5277;48.722;8.736;2024-03-08T04:16:27;2.30;99.90
10459;DHT22;5277;48.722;8.736;2024-03-08T04:18:53;2.30;99.90
10459;DHT22;5277;48.722;8.736;2024-03-08T04:21:19;2.30;99.90
10459;DHT22;5277;48.722;8.736;2024-03-08T04:23:45;2.30;99.90
10459;DHT22;5277;48.722;8.736;2024-03-08T04:26:11;2.30;99.90
10459;DHT22;5277;48.722;8.736;2024-03-08T04:28:36;2.30;99.90
10459;DHT22;5277;48.722;8.736;2024-03-08T04:31:03;2.20;99.90
10459;DHT22;5277;48.722;8.736;2024-03-08T04:33:29;2.30;99.90
10459;DHT22;5277;48.722;8.736;2024-03-08T04:35:54;2.30;99.90
10459;DHT22;5277;48.722;8.736;2024-03-08T04:38:20;2.30;99.90
10459;DHT22;5277;48.722;8.736;2024-03-08T04:40:45;2.30;99.90
10459;DHT22;5277;48.722;8.736;2024-03-08T04:43:11;2.30;99.90
10459;DHT22;5277;48.722;8.736;2024-03-08T04:45:37;2.30;99.90
10459;DHT22;5277;48.722;8.736;2024-03-08T04:48:03;2.30;99.90
10459;DHT22;5277;48.722;8.736;2024-03-08T04:50:28;2.20;99.90
10459;DHT22;5277;48.722;8.736;2024-03-08T04:52:55;2.20;99.90
10459;DHT22;5277;48.722;8.736;2024-03-08T04:55:20;2.30;99.90
10459;DHT22;5277;48.722;8.736;2024-03-08T04:57:47;2.20;99.90
10459;DHT22;5277;48.722;8.736;2024-03-08T05:00:13;2.20;99.90
10459;DHT22;5277;48.722;8.736;2024-03-08T05:02:40;2.20;99.90
10459;DHT22;5277;48.722;8.736;2024-03-08T05:05:07;2.20;99.90
10459;DHT22;5277;48.722;8.736;2024-03-08T05:07:33;2.10;99.90
10459;DHT22;5277;48.722;8.736;2024-03-08T05:09:59;2.20;99.90
10459;DHT22;5277;48.722;8.736;2024-03-08T05:12:24;2.10;99.90
10459;DHT22;5277;48.722;8.736;2024-03-08T05:14:50;2.10;99.90
10459;DHT22;5277;48.722;8.736;2024-03-08T05:17:16;2.10;99.90
10459;DHT22;5277;48.722;8.736;2024-03-08T05:19:44;2.10;99.90
10459;DHT22;5277;48.722;8.736;2024-03-08T05:22:10;2.10;99.90
10459;DHT22;5277;48.722;8.736;2024-03-08T05:24:36;2.00;99.90
10459;DHT22;5277;48.722;8.736;2024-03-08T05:27:02;2.00;99.90
10459;DHT22;5277;48.722;8.736;2024-03-08T05:29:29;2.00;99.90
10459;DHT22;5277;48.722;8.736;2024-03-08T05:31:55;2.00;99.90
10459;DHT22;5277;48.722;8.736;2024-03-08T05:34:22;2.00;99.90
10459;DHT22;5277;48.722;8.736;2024-03-08T05:36:49;2.00;99.90
10459;DHT22;5277;48.722;8.736;2024-03-08T05:39:16;2.00;99.90
10459;DHT22;5277;48.722;8.736;2024-03-08T05:41:43;2.10;99.90
10459;DHT22;5277;48.722;8.736;2024-03-08T05:44:09;2.00;99.90
10459;DHT22;5277;48.722;8.736;2024-03-08T05:46:36;2.00;99.90
10459;DHT22;5277;48.722;8.736;2024-03-08T05:49:05;2.00;99.90
10459;DHT22;5277;48.722;8.736;2024-03-08T05:51:35;2.00;99.90
10459;DHT22;5277;48.722;8.736;2024-03-08T05:54:02;2.00;99.90
10459;DHT22;5277;48.722;8.736;2024-03-08T05:56:29;2.00;99.90
10459;DHT22;5277;48.722;8.736;2024-03-08T05:58:55;1.90;99.90
10459;DHT22;5277;48.722;8.736;2024-03-08T06:01:20;1.90;99.90
10459;DHT22;5277;48.722;8.736;2024-03-08T06:03:47;2.00;99.90
10459;DHT22;5277;48.722;8.736;2024-03-08T06:06:14;2.00;99.90
10459;DHT22;5277;48.722;8.736;2024-03-08T06:08:43;2.00;99.90
10459;DHT22;5277;48.722;8.736;2024-03-08T06:11:09;2.00;99.90
10459;DHT22;5277;48.722;8.736;2024-03-08T06:13:35;2.00;99.90
10459;DHT22;5277;48.722;8.736;2024-03-08T06:16:01;2.00;99.90
10459;DHT22;5277;48.722;8.736;2024-03-08T06:18:30;2.00;99.90
10459;DHT22;5277;48.722;8.736;2024-03-08T06:20:56;2.10;99.90
10459;DHT22;5277;48.722;8.736;2024-03-08T06:23:22;2.10;99.90
10459;DHT22;5277;48.722;8.736;2024-03-08T06:25:48;2.10;99.90
10459;DHT22;5277;48.722;8.736;2024-03-08T06:28:14;2.20;99.90
10459;DHT22;5277;48.722;8.736;2024-03-08T06:30:40;2.20;99.90
10459;DHT22;5277;48.722;8.736;2024-03-08T06:33:05;2.20;99.90
10459;DHT22;5277;48.722;8.736;2024-03-08T06:35:32;2.30;99.90
10459;DHT22;5277;48.722;8.736;2024-03-08T06:37:58;2.30;99.90
10459;DHT22;5277;48.722;8.736;2024-03-08T06:40:24;2.40;99.90
10459;DHT22;5277;48.722;8.736;2024-03-08T06:42:49;2.40;99.90
10459;DHT22;5277;48.722;8.736;2024-03-08T06:45:17;2.50;99.90
10459;DHT22;5277;48.722;8.736;2024-03-08T06:47:46;2.50;99.90
10459;DHT22;5277;48.722;8.736;2024-03-08T06:50:12;2.60;99.90
10459;DHT22;5277;48.722;8.736;2024-03-08T06:52:38;2.50;99.90
10459;DHT22;5277;48.722;8.736;2024-03-08T06:55:04;2.50;99.90
10459;DHT22;5277;48.722;8.736;2024-03-08T06:57:31;2.60;99.90
10459;DHT22;5277;48.722;8.736;2024-03-08T06:59:56;2.60;99.90
10459;DHT22;5277;48.722;8.736;2024-03-08T07:02:24;2.70;99.90
10459;DHT22;5277;48.722;8.736;2024-03-08T07:04:51;2.70;99.90
10459;DHT22;5277;48.722;8.736;2024-03-08T07:07:18;2.80;99.90
10459;DHT22;5277;48.722;8.736;2024-03-08T07:09:46;2.80;99.90
10459;DHT22;5277;48.722;8.736;2024-03-08T07:12:11;2.80;99.90
10459;DHT22;5277;48.722;8.736;2024-03-08T07:14:39;2.90;99.90
10459;DHT22;5277;48.722;8.736;2024-03-08T07:17:06;3.00;99.90
10459;DHT22;5277;48.722;8.736;2024-03-08T07:19:34;3.00;99.90
10459;DHT22;5277;48.722;8.736;2024-03-08T07:22:00;3.00;99.90
10459;DHT22;5277;48.722;8.736;2024-03-08T07:24:25;3.10;99.90
10459;DHT22;5277;48.722;8.736;2024-03-08T07:27:16;3.10;99.90
10459;DHT22;5277;48.722;8.736;2024-03-08T07:29:41;3.10;99.90
10459;DHT22;5277;48.722;8.736;2024-03-08T07:32:07;3.20;99.90
10459;DHT22;5277;48.722;8.736;2024-03-08T07:34:49;3.20;99.90
10459;DHT22;5277;48.722;8.736;2024-03-08T07:37:16;3.30;99.90
10459;DHT22;5277;48.722;8.736;2024-03-08T07:39:42;3.30;99.90
10459;DHT22;5277;48.722;8.736;2024-03-08T07:42:09;3.30;99.90
10459;DHT22;5277;48.722;8.736;2024-03-08T07:44:35;3.30;99.90
10459;DHT22;5277;48.722;8.736;2024-03-08T07:47:01;3.30;99.90
10459;DHT22;5277;48.722;8.736;2024-03-08T07:49:27;3.40;99.90
10459;DHT22;5277;48.722;8.736;2024-03-08T07:51:52;3.50;99.90
10459;DHT22;5277;48.722;8.736;2024-03-08T07:54:18;3.50;99.90
10459;DHT22;5277;48.722;8.736;2024-03-08T07:56:43;3.60;99.90
10459;DHT22;5277;48.722;8.736;2024-03-08T07:59:09;3.60;99.90
10459;DHT22;5277;48.722;8.736;2024-03-08T08:01:37;3.60;99.90
10459;DHT22;5277;48.722;8.736;2024-03-08T08:04:03;3.70;99.90
10459;DHT22;5277;48.722;8.736;2024-03-08T08:06:29;3.70;99.90
10459;DHT22;5277;48.722;8.736;2024-03-08T08:08:58;3.70;99.90
10459;DHT22;5277;48.722;8.736;2024-03-08T08:11:26;3.80;99.90
10459;DHT22;5277;48.722;8.736;2024-03-08T08:13:53;3.80;99.90
10459;DHT22;5277;48.722;8.736;2024-03-08T08:16:20;3.90;99.90
10459;DHT22;5277;48.722;8.736;2024-03-08T08:18:45;3.90;99.90
10459;DHT22;5277;48.722;8.736;2024-03-08T08:21:11;3.90;99.90
10459;DHT22;5277;48.722;8.736;2024-03-08T08:23:37;4.00;99.90
10459;DHT22;5277;48.722;8.736;2024-03-08T08:26:03;4.10;99.90
10459;DHT22;5277;48.722;8.736;2024-03-08T08:28:29;4.10;99.90
10459;DHT22;5277;48.722;8.736;2024-03-08T08:30:54;4.10;99.90
10459;DHT22;5277;48.722;8.736;2024-03-08T08:33:20;4.20;99.90
10459;DHT22;5277;48.722;8.736;2024-03-08T08:35:46;4.20;99.90
10459;DHT22;5277;48.722;8.736;2024-03-08T08:38:13;4.30;99.90
10459;DHT22;5277;48.722;8.736;2024-03-08T08:40:38;4.30;99.90
10459;DHT22;5277;48.722;8.736;2024-03-08T08:43:04;4.40;99.90
10459;DHT22;5277;48.722;8.736;2024-03-08T08:45:31;4.40;99.90
10459;DHT22;5277;48.722;8.736;2024-03-08T08:47:56;4.50;99.90
10459;DHT22;5277;48.722;8.736;2024-03-08T08:50:22;4.50;99.90
10459;DHT22;5277;48.722;8.736;2024-03-08T08:52:49;4.60;99.90
10459;DHT22;5277;48.722;8.736;2024-03-08T08:55:14;4.60;99.90
10459;DHT22;5277;48.722;8.736;2024-03-08T08:57:41;4.70;99.90
10459;DHT22;5277;48.722;8.736;2024-03-08T09:00:07;4.70;99.90
10459;DHT22;5277;48.722;8.736;2024-03-08T09:02:40;4.70;99.90
10459;DHT22;5277;48.722;8.736;2024-03-08T09:05:06;4.70;99.90
10459;DHT22;5277;48.722;8.736;2024-03-08T09:07:33;4.70;99.90
10459;DHT22;5277;48.722;8.736;2024-03-08T09:10:00;4.80;99.90
10459;DHT22;5277;48.722;8.736;2024-03-08T09:12:26;4.80;99.90
10459;DHT22;5277;48.722;8.736;2024-03-08T09:14:51;4.90;99.90
10459;DHT22;5277;48.722;8.736;2024-03-08T09:17:17;5.00;99.90
10459;DHT22;5277;48.722;8.736;2024-03-08T09:19:49;5.00;99.90
10459;DHT22;5277;48.722;8.736;2024-03-08T09:22:15;5.00;99.90
10459;DHT22;5277;48.722;8.736;2024-03-08T09:24:41;5.10;99.90
10459;DHT22;5277;48.722;8.736;2024-03-08T09:27:08;5.10;99.90
10459;DHT22;5277;48.722;8.736;2024-03-08T09:29:35;5.10;99.90
10459;DHT22;5277;48.722;8.736;2024-03-08T09:32:01;5.20;99.90
10459;DHT22;5277;48.722;8.736;2024-03-08T09:34:26;5.20;99.90
10459;DHT22;5277;48.722;8.736;2024-03-08T09:36:52;5.30;99.90
10459;DHT22;5277;48.722;8.736;2024-03-08T09:39:18;5.40;99.90
10459;DHT22;5277;48.722;8.736;2024-03-08T09:41:46;5.40;99.90
10459;DHT22;5277;48.722;8.736;2024-03-08T09:44:15;5.40;99.90
10459;DHT22;5277;48.722;8.736;2024-03-08T09:46:41;5.50;99.90
10459;DHT22;5277;48.722;8.736;2024-03-08T09:49:07;5.50;99.90
10459;DHT22;5277;48.722;8.736;2024-03-08T09:51:34;5.50;99.90
10459;DHT22;5277;48.722;8.736;2024-03-08T09:54:03;5.50;99.90
10459;DHT22;5277;48.722;8.736;2024-03-08T09:56:32;5.50;99.90
10459;DHT22;5277;48.722;8.736;2024-03-08T09:58:59;5.60;99.90
10459;DHT22;5277;48.722;8.736;2024-03-08T10:01:31;5.60;99.90
10459;DHT22;5277;48.722;8.736;2024-03-08T10:03:57;5.60;99.90
10459;DHT22;5277;48.722;8.736;2024-03-08T10:06:23;5.60;99.90
10459;DHT22;5277;48.722;8.736;2024-03-08T10:08:50;5.60;99.90
10459;DHT22;5277;48.722;8.736;2024-03-08T10:11:19;5.60;99.90
10459;DHT22;5277;48.722;8.736;2024-03-08T10:13:45;5.60;99.90
10459;DHT22;5277;48.722;8.736;2024-03-08T10:16:13;5.60;99.90
10459;DHT22;5277;48.722;8.736;2024-03-08T10:18:38;5.60;99.90
10459;DHT22;5277;48.722;8.736;2024-03-08T10:21:08;5.70;99.90
10459;DHT22;5277;48.722;8.736;2024-03-08T10:23:36;5.70;99.90
10459;DHT22;5277;48.722;8.736;2024-03-08T10:28:44;5.80;99.90
10459;DHT22;5277;48.722;8.736;2024-03-08T10:31:09;5.90;99.90
10459;DHT22;5277;48.722;8.736;2024-03-08T10:33:35;6.00;99.90
10459;DHT22;5277;48.722;8.736;2024-03-08T10:36:03;6.00;99.90
10459;DHT22;5277;48.722;8.736;2024-03-08T10:38:31;6.00;99.90
10459;DHT22;5277;48.722;8.736;2024-03-08T10:41:01;6.10;99.90
10459;DHT22;5277;48.722;8.736;2024-03-08T10:43:28;6.20;99.80
10459;DHT22;5277;48.722;8.736;2024-03-08T10:46:21;6.20;99.90
10459;DHT22;5277;48.722;8.736;2024-03-08T10:48:52;6.40;99.90
10459;DHT22;5277;48.722;8.736;2024-03-08T10:51:21;6.40;99.40
10459;DHT22;5277;48.722;8.736;2024-03-08T10:53:47;6.50;99.20
10459;DHT22;5277;48.722;8.736;2024-03-08T10:56:14;6.50;99.40
10459;DHT22;5277;48.722;8.736;2024-03-08T10:58:40;6.50;99.20
10459;DHT22;5277;48.722;8.736;2024-03-08T11:01:06;6.50;99.10
10459;DHT22;5277;48.722;8.736;2024-03-08T11:06:18;6.50;98.90
10459;DHT22;5277;48.722;8.736;2024-03-08T11:08:48;6.40;98.60
10459;DHT22;5277;48.722;8.736;2024-03-08T11:11:32;6.40;99.10
10459;DHT22;5277;48.722;8.736;2024-03-08T11:14:00;6.50;99.20
10459;DHT22;5277;48.722;8.736;2024-03-08T11:21:44;6.50;99.00
10459;DHT22;5277;48.722;8.736;2024-03-08T11:24:12;6.60;98.90
10459;DHT22;5277;48.722;8.736;2024-03-08T11:26:39;6.60;98.90
10459;DHT22;5277;48.722;8.736;2024-03-08T11:32:19;6.70;98.40
10459;DHT22;5277;48.722;8.736;2024-03-08T11:34:48;6.80;98.50
10459;DHT22;5277;48.722;8.736;2024-03-08T11:37:17;6.80;98.50
10459;DHT22;5277;48.722;8.736;2024-03-08T11:39:51;6.80;98.50
10459;DHT22;5277;48.722;8.736;2024-03-08T11:42:18;6.90;98.50
10459;DHT22;5277;48.722;8.736;2024-03-08T11:44:45;7.00;98.00
10459;DHT22;5277;48.722;8.736;2024-03-08T11:47:11;7.00;98.30
10459;DHT22;5277;48.722;8.736;2024-03-08T11:49:38;7.00;98.10
10459;DHT22;5277;48.722;8.736;2024-03-08T11:52:04;7.10;98.00
10459;DHT22;5277;48.722;8.736;2024-03-08T11:54:30;7.20;97.90
10459;DHT22;5277;48.722;8.736;2024-03-08T11:56:56;7.20;97.70
10459;DHT22;5277;48.722;8.736;2024-03-08T11:59:29;7.30;97.60
10459;DHT22;5277;48.722;8.736;2024-03-08T12:02:04;7.20;97.80
10459;DHT22;5277;48.722;8.736;2024-03-08T12:04:30;7.30;98.10
10459;DHT22;5277;48.722;8.736;2024-03-08T12:06:59;7.50;97.90
10459;DHT22;5277;48.722;8.736;2024-03-08T12:09:26;7.60;97.30
10459;DHT22;5277;48.722;8.736;2024-03-08T12:11:52;7.60;96.90
10459;DHT22;5277;48.722;8.736;2024-03-08T12:14:17;7.70;96.80
10459;DHT22;5277;48.722;8.736;2024-03-08T12:16:43;7.80;96.90
10459;DHT22;5277;48.722;8.736;2024-03-08T12:19:10;7.80;96.80
10459;DHT22;5277;48.722;8.736;2024-03-08T12:21:36;8.00;96.40
10459;DHT22;5277;48.722;8.736;2024-03-08T12:24:07;8.10;96.90
10459;DHT22;5277;48.722;8.736;2024-03-08T12:26:37;8.30;96.40
10459;DHT22;5277;48.722;8.736;2024-03-08T12:29:25;8.50;96.40
10459;DHT22;5277;48.722;8.736;2024-03-08T12:31:53;8.70;96.20
10459;DHT22;5277;48.722;8.736;2024-03-08T12:34:19;9.10;95.90
10459;DHT22;5277;48.722;8.736;2024-03-08T12:36:49;9.40;95.70
10459;DHT22;5277;48.722;8.736;2024-03-08T12:39:17;9.50;94.80
10459;DHT22;5277;48.722;8.736;2024-03-08T12:41:47;9.70;94.80
10459;DHT22;5277;48.722;8.736;2024-03-08T12:44:12;10.00;94.40
10459;DHT22;5277;48.722;8.736;2024-03-08T12:46:38;10.20;93.60
10459;DHT22;5277;48.722;8.736;2024-03-08T12:49:09;10.50;93.10
10459;DHT22;5277;48.722;8.736;2024-03-08T12:51:38;10.70;93.80
10459;DHT22;5277;48.722;8.736;2024-03-08T12:54:05;11.10;92.90
10459;DHT22;5277;48.722;8.736;2024-03-08T12:56:34;11.60;92.50
10459;DHT22;5277;48.722;8.736;2024-03-08T12:59:01;11.80;91.50
10459;DHT22;5277;48.722;8.736;2024-03-08T13:01:27;12.10;91.20
10459;DHT22;5277;48.722;8.736;2024-03-08T13:03:53;12.20;89.90
10459;DHT22;5277;48.722;8.736;2024-03-08T13:06:19;12.30;89.50
10459;DHT22;5277;48.722;8.736;2024-03-08T13:08:50;12.30;88.60
10459;DHT22;5277;48.722;8.736;2024-03-08T13:11:16;12.60;88.30
10459;DHT22;5277;48.722;8.736;2024-03-08T13:13:43;12.40;88.80
10459;DHT22;5277;48.722;8.736;2024-03-08T13:16:10;12.80;88.60
10459;DHT22;5277;48.722;8.736;2024-03-08T13:18:36;13.30;85.40
10459;DHT22;5277;48.722;8.736;2024-03-08T13:21:03;13.30;84.30
10459;DHT22;5277;48.722;8.736;2024-03-08T13:23:33;13.90;84.80
10459;DHT22;5277;48.722;8.736;2024-03-08T13:26:12;14.70;83.10
10459;DHT22;5277;48.722;8.736;2024-03-08T13:28:47;15.30;78.70
10459;DHT22;5277;48.722;8.736;2024-03-08T13:31:14;15.30;76.60
10459;DHT22;5277;48.722;8.736;2024-03-08T13:33:40;14.80;77.00
10459;DHT22;5277;48.722;8.736;2024-03-08T13:36:08;14.20;76.60
10459;DHT22;5277;48.722;8.736;2024-03-08T13:38:41;13.50;79.30
10459;DHT22;5277;48.722;8.736;2024-03-08T13:41:08;13.00;80.70
10459;DHT22;5277;48.722;8.736;2024-03-08T13:43:34;12.50;80.90
10459;DHT22;5277;48.722;8.736;2024-03-08T13:46:02;12.10;83.40
10459;DHT22;5277;48.722;8.736;2024-03-08T13:48:28;11.60;84.70
10459;DHT22;5277;48.722;8.736;2024-03-08T13:50:53;11.10;87.60
10459;DHT22;5277;48.722;8.736;2024-03-08T13:53:20;10.60;89.90
10459;DHT22;5277;48.722;8.736;2024-03-08T13:55:46;10.30;90.10
10459;DHT22;5277;48.722;8.736;2024-03-08T13:58:11;10.20;90.70
10459;DHT22;5277;48.722;8.736;2024-03-08T14:00:39;10.00;91.30
10459;DHT22;5277;48.722;8.736;2024-03-08T14:03:06;9.90;91.90
10459;DHT22;5277;48.722;8.736;2024-03-08T14:05:32;9.80;92.30
10459;DHT22;5277;48.722;8.736;2024-03-08T14:08:01;9.60;92.30
10459;DHT22;5277;48.722;8.736;2024-03-08T14:10:29;9.40;93.00
10459;DHT22;5277;48.722;8.736;2024-03-08T14:12:57;9.30;93.40
10459;DHT22;5277;48.722;8.736;2024-03-08T14:15:22;9.20;93.60
10459;DHT22;5277;48.722;8.736;2024-03-08T14:17:57;9.20;93.90
10459;DHT22;5277;48.722;8.736;2024-03-08T14:20:23;9.20;94.00
10459;DHT22;5277;48.722;8.736;2024-03-08T14:22:55;9.20;94.20
10459;DHT22;5277;48.722;8.736;2024-03-08T14:25:21;9.10;94.00
10459;DHT22;5277;48.722;8.736;2024-03-08T14:27:49;9.00;94.60
10459;DHT22;5277;48.722;8.736;2024-03-08T14:30:15;8.90;95.00
10459;DHT22;5277;48.722;8.736;2024-03-08T14:32:58;8.90;94.80
10459;DHT22;5277;48.722;8.736;2024-03-08T14:35:25;8.90;94.60
10459;DHT22;5277;48.722;8.736;2024-03-08T14:37:51;8.80;95.20
10459;DHT22;5277;48.722;8.736;2024-03-08T14:40:17;8.80;95.00
10459;DHT22;5277;48.722;8.736;2024-03-08T14:42:50;8.80;94.90
10459;DHT22;5277;48.722;8.736;2024-03-08T14:45:16;8.80;95.20
10459;DHT22;5277;48.722;8.736;2024-03-08T14:47:47;8.80;95.40
10459;DHT22;5277;48.722;8.736;2024-03-08T14:50:20;8.80;95.20
10459;DHT22;5277;48.722;8.736;2024-03-08T14:52:46;8.70;94.80
10459;DHT22;5277;48.722;8.736;2024-03-08T14:55:15;8.80;95.00
10459;DHT22;5277;48.722;8.736;2024-03-08T14:57:44;8.70;95.40
10459;DHT22;5277;48.722;8.736;2024-03-08T15:00:13;8.70;95.50
10459;DHT22;5277;48.722;8.736;2024-03-08T15:02:44;8.80;95.20
10459;DHT22;5277;48.722;8.736;2024-03-08T15:05:10;8.80;95.50
10459;DHT22;5277;48.722;8.736;2024-03-08T15:07:40;8.80;94.90
10459;DHT22;5277;48.722;8.736;2024-03-08T15:10:08;8.90;95.70
10459;DHT22;5277;48.722;8.736;2024-03-08T15:12:40;8.90;95.90
10459;DHT22;5277;48.722;8.736;2024-03-08T15:15:09;8.90;95.80
10459;DHT22;5277;48.722;8.736;2024-03-08T15:17:35;8.80;95.70
10459;DHT22;5277;48.722;8.736;2024-03-08T15:20:02;8.80;95.60
10459;DHT22;5277;48.722;8.736;2024-03-08T15:22:28;8.80;95.80
10459;DHT22;5277;48.722;8.736;2024-03-08T15:24:54;8.80;95.70
10459;DHT22;5277;48.722;8.736;2024-03-08T15:27:19;8.80;95.70
10459;DHT22;5277;48.722;8.736;2024-03-08T15:29:45;8.80;94.90
10459;DHT22;5277;48.722;8.736;2024-03-08T15:32:14;8.80;95.90
10459;DHT22;5277;48.722;8.736;2024-03-08T15:34:45;8.70;95.40
10459;DHT22;5277;48.722;8.736;2024-03-08T15:37:11;8.70;95.40
10459;DHT22;5277;48.722;8.736;2024-03-08T15:39:42;8.70;95.70
10459;DHT22;5277;48.722;8.736;2024-03-08T15:42:08;8.70;94.80
10459;DHT22;5277;48.722;8.736;2024-03-08T15:44:37;8.70;94.90
10459;DHT22;5277;48.722;8.736;2024-03-08T15:47:04;8.80;95.90
10459;DHT22;5277;48.722;8.736;2024-03-08T15:49:32;8.70;95.30
10459;DHT22;5277;48.722;8.736;2024-03-08T15:51:58;8.80;95.50
10459;DHT22;5277;48.722;8.736;2024-03-08T15:54:23;8.70;95.40
10459;DHT22;5277;48.722;8.736;2024-03-08T15:56:50;8.80;95.40
10459;DHT22;5277;48.722;8.736;2024-03-08T15:59:16;8.80;96.00
10459;DHT22;5277;48.722;8.736;2024-03-08T16:01:42;8.50;96.70
10459;DHT22;5277;48.722;8.736;2024-03-08T16:04:12;8.40;96.40
10459;DHT22;5277;48.722;8.736;2024-03-08T16:06:37;8.50;97.00
10459;DHT22;5277;48.722;8.736;2024-03-08T16:09:05;8.40;97.70
10459;DHT22;5277;48.722;8.736;2024-03-08T16:11:38;8.30;97.10
10459;DHT22;5277;48.722;8.736;2024-03-08T16:14:04;8.30;97.60